createdAt,value
2018-06-04T00:02:27.601Z,84.12
2018-06-04T00:05:31.994Z,83.27
2018-06-04T00:08:36.377Z,83.35
2018-06-04T00:11:40.817Z,84.28
2018-06-04T00:14:45.219Z,84.46
2018-06-04T00:17:49.622Z,84.72
2018-06-04T00:20:54.068Z,84.77
2018-06-04T00:23:58.460Z,84.48
2018-06-04T00:27:03.729Z,84.40
2018-06-04T00:30:08.109Z,84.51
2018-06-04T00:33:12.522Z,85.17
2018-06-04T00:36:16.898Z,84.58
2018-06-04T00:39:21.307Z,85.15
2018-06-04T00:42:25.707Z,85.15
2018-06-04T00:45:30.092Z,85.23
2018-06-04T00:48:34.502Z,85.51
2018-06-04T00:51:38.918Z,85.12
2018-06-04T00:54:43.290Z,85.46
2018-06-04T00:57:47.685Z,85.20
2018-06-04T01:00:52.062Z,86.06
2018-06-04T01:03:56.503Z,85.38
2018-06-04T01:07:00.913Z,85.67
2018-06-04T01:10:05.385Z,85.79
2018-06-04T01:13:09.792Z,86.55
2018-06-04T01:16:14.196Z,86.60
2018-06-04T01:19:18.571Z,86.71
2018-06-04T01:22:22.975Z,86.92
2018-06-04T01:25:27.365Z,86.88
2018-06-04T01:28:31.749Z,86.71
2018-06-04T01:31:36.125Z,86.97
2018-06-04T01:34:40.549Z,87.34
2018-06-04T01:37:44.936Z,87.81
2018-06-04T01:40:49.341Z,87.34
2018-06-04T01:43:53.726Z,87.59
2018-06-04T01:46:58.146Z,87.58
2018-06-04T01:50:02.537Z,87.71
2018-06-04T01:53:06.934Z,87.52
2018-06-04T01:56:11.317Z,88.32
2018-06-04T01:59:15.725Z,87.15
2018-06-04T02:02:20.105Z,87.35
2018-06-04T02:05:24.550Z,88.31
2018-06-04T02:08:28.934Z,87.70
2018-06-04T02:11:33.337Z,88.38
2018-06-04T02:14:37.733Z,87.76
2018-06-04T02:17:42.156Z,88.04
2018-06-04T02:20:46.533Z,88.55
2018-06-04T02:23:50.946Z,88.41
2018-06-04T02:26:55.339Z,88.87
2018-06-04T02:29:59.730Z,87.87
2018-06-04T02:33:04.179Z,88.76
2018-06-04T02:36:08.564Z,88.69
2018-06-04T02:39:13.003Z,88.09
2018-06-04T02:42:17.407Z,88.46
2018-06-04T02:45:21.841Z,88.57
2018-06-04T02:48:26.249Z,88.82
2018-06-04T02:51:30.657Z,88.81
2018-06-04T02:54:35.053Z,88.32
2018-06-04T02:57:39.429Z,88.41
2018-06-04T03:00:43.819Z,88.32
2018-06-04T03:03:48.215Z,87.93
2018-06-04T03:06:52.592Z,88.89
2018-06-04T03:09:57.023Z,88.08
2018-06-04T03:13:01.410Z,88.86
2018-06-04T03:16:05.923Z,88.83
2018-06-04T03:19:10.317Z,88.31
2018-06-04T03:22:14.680Z,88.76
2018-06-04T03:25:19.073Z,88.86
2018-06-04T03:28:23.477Z,89.08
2018-06-04T03:31:27.902Z,88.80
2018-06-04T03:34:32.293Z,89.19
2018-06-04T03:37:36.681Z,89.69
2018-06-04T03:40:41.093Z,89.86
2018-06-04T03:43:45.791Z,89.69
2018-06-04T03:46:50.294Z,89.41
2018-06-04T03:49:54.720Z,89.88
2018-06-04T03:52:59.165Z,90.08
2018-06-04T03:56:03.557Z,88.90
2018-06-04T03:59:08.007Z,89.62
2018-06-04T04:02:12.933Z,90.13
2018-06-04T04:05:17.339Z,89.58
2018-06-04T04:08:21.783Z,90.27
2018-06-04T04:11:26.171Z,89.89
2018-06-04T04:14:30.578Z,90.54
2018-06-04T04:17:34.979Z,90.34
2018-06-04T04:20:39.390Z,89.74
2018-06-04T04:23:43.775Z,90.04
2018-06-04T04:26:48.183Z,89.29
2018-06-04T04:29:52.575Z,89.70
2018-06-04T04:32:56.957Z,89.48
2018-06-04T04:36:01.370Z,89.75
2018-06-04T04:39:09.195Z,89.56
2018-06-04T04:42:13.591Z,89.49
2018-06-04T04:45:18.113Z,90.27
2018-06-04T04:48:22.578Z,89.74
2018-06-04T04:51:26.962Z,90.85
2018-06-04T04:54:31.441Z,90.43
2018-06-04T04:57:35.803Z,90.14
2018-06-04T05:00:40.246Z,90.85
2018-06-04T05:03:44.658Z,91.17
2018-06-04T05:06:49.054Z,90.28
2018-06-04T05:09:53.489Z,91.07
2018-06-04T05:12:57.903Z,91.05
2018-06-04T05:16:02.330Z,91.49
2018-06-04T05:19:06.750Z,90.73
2018-06-04T05:22:11.203Z,90.99
2018-06-04T05:25:15.614Z,91.48
2018-06-04T05:28:20.034Z,91.00
2018-06-04T05:31:24.432Z,91.82
2018-06-04T05:34:28.881Z,91.63
2018-06-04T05:37:33.291Z,92.27
2018-06-04T05:40:37.709Z,91.98
2018-06-04T05:43:42.123Z,91.58
2018-06-04T05:46:46.522Z,92.86
2018-06-04T05:49:50.958Z,92.24
2018-06-04T05:52:55.373Z,93.11
2018-06-04T05:55:59.766Z,93.48
2018-06-04T05:59:04.219Z,93.79
2018-06-04T06:02:08.689Z,93.63
2018-06-04T06:05:13.108Z,93.86
2018-06-04T06:08:17.517Z,93.48
2018-06-04T06:11:22.193Z,93.48
2018-06-04T06:14:26.640Z,94.07
2018-06-04T06:17:31.059Z,94.18
2018-06-04T06:20:35.473Z,93.45
2018-06-04T06:23:39.922Z,93.70
2018-06-04T06:26:44.366Z,93.60
2018-06-04T06:29:49.041Z,94.42
2018-06-04T06:32:53.477Z,93.97
2018-06-04T06:35:57.891Z,94.35
2018-06-04T06:39:02.326Z,94.01
2018-06-04T06:42:06.733Z,94.03
2018-06-04T06:45:11.173Z,94.38
2018-06-04T06:48:15.582Z,94.82
2018-06-04T06:51:20.050Z,94.73
2018-06-04T06:54:24.450Z,94.74
2018-06-04T06:57:28.869Z,95.47
2018-06-04T07:00:33.241Z,95.70
2018-06-04T07:03:37.650Z,94.94
2018-06-04T07:06:42.054Z,94.18
2018-06-04T07:09:46.509Z,94.64
2018-06-04T07:12:50.889Z,94.21
2018-06-04T07:15:55.328Z,93.83
2018-06-04T07:18:59.726Z,94.29
2018-06-04T07:22:04.179Z,94.17
2018-06-04T07:25:08.554Z,93.97
2018-06-04T07:28:13.006Z,93.67
2018-06-04T07:31:17.401Z,93.98
2018-06-04T07:34:21.814Z,94.00
2018-06-04T07:37:26.226Z,94.01
2018-06-04T07:40:30.661Z,94.37
2018-06-04T07:43:35.128Z,94.15
2018-06-04T07:46:39.549Z,93.91
2018-06-04T07:49:43.954Z,93.90
2018-06-04T07:52:48.353Z,93.52
2018-06-04T07:55:52.758Z,92.07
2018-06-04T07:58:57.154Z,92.78
2018-06-04T08:02:01.590Z,92.45
2018-06-04T08:05:06.244Z,90.01
2018-06-04T08:08:10.653Z,90.10
2018-06-04T08:11:15.067Z,90.38
2018-06-04T08:14:19.489Z,88.01
2018-06-04T08:17:23.877Z,86.58
2018-06-04T08:20:28.284Z,84.77
2018-06-04T08:23:32.685Z,84.21
2018-06-04T08:26:37.102Z,82.35
2018-06-04T08:29:41.486Z,81.66
2018-06-04T08:32:45.918Z,80.91
2018-06-04T08:35:50.306Z,79.41
2018-06-04T08:38:54.717Z,80.11
2018-06-04T08:41:59.124Z,80.04
2018-06-04T08:45:03.564Z,77.91
2018-06-04T08:48:07.955Z,79.81
2018-06-04T08:51:12.387Z,78.83
2018-06-04T08:54:16.810Z,78.21
2018-06-04T08:57:20.966Z,78.73
2018-06-04T09:00:25.366Z,78.55
2018-06-04T09:03:29.778Z,77.73
2018-06-04T09:06:34.169Z,76.56
2018-06-04T09:09:38.593Z,76.90
2018-06-04T09:12:43.001Z,76.37
2018-06-04T09:15:47.463Z,75.87
2018-06-04T09:18:51.877Z,77.94
2018-06-04T09:21:56.291Z,77.22
2018-06-04T09:25:00.706Z,78.30
2018-06-04T09:28:05.481Z,76.56
2018-06-04T09:31:09.951Z,76.64
2018-06-04T09:34:14.368Z,75.71
2018-06-04T09:37:18.764Z,74.31
2018-06-04T09:40:23.165Z,73.90
2018-06-04T09:43:27.573Z,74.12
2018-06-04T09:46:32.019Z,73.21
2018-06-04T09:49:36.426Z,72.45
2018-06-04T09:52:40.866Z,72.50
2018-06-04T09:55:45.269Z,73.30
2018-06-04T09:58:49.694Z,72.31
2018-06-04T10:01:54.093Z,72.83
2018-06-04T10:04:58.520Z,74.29
2018-06-04T10:08:02.966Z,73.49
2018-06-04T10:11:07.394Z,73.58
2018-06-04T10:14:11.837Z,72.03
2018-06-04T10:17:16.235Z,69.81
2018-06-04T10:20:20.729Z,70.61
2018-06-04T10:23:25.137Z,71.02
2018-06-04T10:26:29.546Z,71.26
2018-06-04T10:29:38.260Z,72.60
2018-06-04T10:32:42.921Z,70.35
2018-06-04T10:35:47.345Z,70.66
2018-06-04T10:38:56.054Z,71.41
2018-06-04T10:42:02.434Z,70.50
2018-06-04T10:45:07.076Z,71.56
2018-06-04T10:48:12.531Z,70.79
2018-06-04T10:51:17.038Z,70.83
2018-06-04T10:54:22.345Z,70.20
2018-06-04T10:57:26.937Z,70.42
2018-06-04T11:00:31.473Z,68.55
2018-06-04T11:03:42.108Z,70.15
2018-06-04T11:06:51.398Z,69.79
2018-06-04T11:09:56.015Z,69.51
2018-06-04T11:13:00.527Z,69.14
2018-06-04T11:16:05.089Z,69.80
2018-06-04T11:19:09.676Z,68.47
2018-06-04T11:22:14.111Z,69.97
2018-06-04T11:25:18.610Z,70.94
2018-06-04T11:28:22.997Z,69.24
2018-06-04T11:31:28.438Z,70.88
2018-06-04T11:34:32.828Z,70.19
2018-06-04T11:37:37.253Z,68.95
2018-06-04T11:40:41.752Z,69.76
2018-06-04T11:43:47.661Z,68.24
2018-06-04T11:46:52.210Z,69.57
2018-06-04T11:49:56.673Z,68.56
2018-06-04T11:53:01.154Z,67.74
2018-06-04T11:56:05.864Z,69.52
2018-06-04T11:59:10.845Z,67.93
2018-06-04T12:02:15.535Z,66.64
2018-06-04T12:05:20.011Z,69.10
2018-06-04T12:08:24.534Z,67.52
2018-06-04T12:11:29.738Z,66.97
2018-06-04T12:14:34.358Z,68.79
2018-06-04T12:17:38.974Z,67.50
2018-06-04T12:20:43.490Z,68.13
2018-06-04T12:23:47.999Z,69.92
2018-06-04T12:26:52.465Z,66.83
2018-06-04T12:29:56.896Z,67.59
2018-06-04T12:33:01.362Z,67.03
2018-06-04T12:36:06.344Z,69.48
2018-06-04T12:39:10.832Z,67.85
2018-06-04T12:42:15.324Z,69.88
2018-06-04T12:45:20.318Z,68.46
2018-06-04T12:48:24.830Z,68.48
2018-06-04T12:51:29.345Z,67.89
2018-06-04T12:54:33.872Z,69.22
2018-06-04T12:57:38.363Z,70.53
2018-06-04T13:00:42.840Z,70.67
2018-06-04T13:03:47.566Z,70.34
2018-06-04T13:06:52.314Z,71.45
2018-06-04T13:09:56.849Z,71.37
2018-06-04T13:13:01.263Z,69.88
2018-06-04T13:16:05.833Z,70.40
2018-06-04T13:19:10.306Z,70.19
2018-06-04T13:22:14.795Z,69.22
2018-06-04T13:25:19.188Z,70.13
2018-06-04T13:28:23.597Z,69.88
2018-06-04T13:31:28.017Z,70.30
2018-06-04T13:34:33.570Z,71.77
2018-06-04T13:37:39.197Z,70.90
2018-06-04T13:40:43.617Z,70.64
2018-06-04T13:43:48.217Z,68.75
2018-06-04T13:47:04.667Z,70.91
2018-06-04T13:50:09.237Z,69.43
2018-06-04T13:53:20.091Z,69.25
2018-06-04T13:56:25.277Z,70.06
2018-06-04T13:59:29.972Z,70.50
2018-06-04T14:02:35.325Z,68.70
2018-06-04T14:05:39.770Z,68.88
2018-06-04T14:08:44.177Z,67.73
2018-06-04T14:11:48.583Z,67.33
2018-06-04T14:14:53.009Z,65.78
2018-06-04T14:17:57.453Z,67.38
2018-06-04T14:21:01.860Z,66.85
2018-06-04T14:24:06.264Z,67.66
2018-06-04T14:27:10.660Z,68.76
2018-06-04T14:30:15.063Z,69.78
2018-06-04T14:33:19.478Z,69.61
2018-06-04T14:36:23.890Z,69.84
2018-06-04T14:39:28.295Z,70.68
2018-06-04T14:42:32.666Z,71.05
2018-06-04T14:45:37.064Z,70.62
2018-06-04T14:48:41.477Z,71.53
2018-06-04T14:51:45.876Z,71.70
2018-06-04T14:54:50.276Z,72.34
2018-06-04T14:57:54.678Z,72.28
2018-06-04T15:00:59.091Z,72.90
2018-06-04T15:04:03.548Z,73.68
2018-06-04T15:07:08.171Z,74.09
2018-06-04T15:10:12.597Z,73.65
2018-06-04T15:13:17.022Z,74.10
2018-06-04T15:16:21.458Z,74.47
2018-06-04T15:19:25.911Z,73.99
2018-06-04T15:22:30.366Z,74.30
2018-06-04T15:25:34.799Z,73.17
2018-06-04T15:28:39.205Z,74.62
2018-06-04T15:31:43.623Z,74.21
2018-06-04T15:34:48.660Z,72.93
2018-06-04T15:37:53.519Z,74.05
2018-06-04T15:40:57.898Z,74.15
2018-06-04T15:44:03.288Z,72.90
2018-06-04T15:47:07.798Z,72.87
2018-06-04T15:50:12.215Z,73.21
2018-06-04T15:53:17.040Z,73.31
2018-06-04T15:56:21.693Z,72.61
2018-06-04T15:59:26.289Z,73.03
2018-06-04T16:02:30.902Z,73.83
2018-06-04T16:05:35.502Z,73.44
2018-06-04T16:08:40.333Z,72.82
2018-06-04T16:11:45.467Z,72.26
2018-06-04T16:14:50.073Z,72.87
2018-06-04T16:17:54.517Z,72.96
2018-06-04T16:20:58.957Z,71.17
2018-06-04T16:24:03.490Z,72.23
2018-06-04T16:27:08.052Z,71.97
2018-06-04T16:30:12.741Z,70.94
2018-06-04T16:33:17.286Z,71.08
2018-06-04T16:36:22.430Z,71.04
2018-06-04T16:39:26.982Z,71.41
2018-06-04T16:42:34.846Z,71.28
2018-06-04T16:45:39.314Z,71.75
2018-06-04T16:48:51.408Z,72.56
2018-06-04T16:51:57.759Z,71.72
2018-06-04T16:55:02.251Z,71.93
2018-06-04T16:58:07.026Z,72.75
2018-06-04T17:01:11.465Z,73.55
2018-06-04T17:04:15.853Z,73.27
2018-06-04T17:07:20.237Z,74.24
2018-06-04T17:10:24.621Z,73.47
2018-06-04T17:13:28.760Z,74.27
2018-06-04T17:16:33.152Z,74.37
2018-06-04T17:19:37.537Z,74.94
2018-06-04T17:22:41.921Z,74.96
2018-06-04T17:25:46.318Z,75.10
2018-06-04T17:28:50.730Z,75.92
2018-06-04T17:31:55.112Z,74.82
2018-06-04T17:34:59.489Z,75.91
2018-06-04T17:38:03.872Z,74.65
2018-06-04T17:41:08.304Z,74.75
2018-06-04T17:44:12.729Z,74.58
2018-06-04T17:47:17.132Z,74.47
2018-06-04T17:50:21.532Z,75.08
2018-06-04T17:53:25.922Z,74.99
2018-06-04T17:56:30.350Z,76.11
2018-06-04T17:59:34.753Z,75.75
2018-06-04T18:02:39.209Z,76.72
2018-06-04T18:05:43.618Z,76.81
2018-06-04T18:08:47.992Z,76.96
2018-06-04T18:11:52.413Z,74.88
2018-06-04T18:14:56.839Z,74.77
2018-06-04T18:18:01.338Z,74.93
2018-06-04T18:21:05.702Z,74.16
2018-06-04T18:24:10.221Z,74.19
2018-06-04T18:27:14.641Z,73.57
2018-06-04T18:30:19.053Z,73.53
2018-06-04T18:33:23.461Z,74.04
2018-06-04T18:36:27.864Z,72.79
2018-06-04T18:39:32.385Z,73.21
2018-06-04T18:42:36.792Z,74.39
2018-06-04T18:45:41.204Z,74.77
2018-06-04T18:48:45.609Z,74.99
2018-06-04T18:51:50.053Z,75.15
2018-06-04T18:54:54.446Z,74.23
2018-06-04T18:57:58.860Z,73.87
2018-06-04T19:01:03.267Z,74.91
2018-06-04T19:04:07.674Z,74.60
2018-06-04T19:07:12.398Z,74.72
2018-06-04T19:10:16.805Z,75.43
2018-06-04T19:13:21.218Z,75.74
2018-06-04T19:16:25.591Z,75.34
2018-06-04T19:19:29.981Z,76.24
2018-06-04T19:22:34.376Z,75.69
2018-06-04T19:25:38.802Z,75.48
2018-06-04T19:28:43.225Z,76.21
2018-06-04T19:31:47.623Z,75.88
2018-06-04T19:34:52.041Z,77.05
2018-06-04T19:37:56.463Z,77.15
2018-06-04T19:41:00.860Z,77.06
2018-06-04T19:44:06.210Z,77.20
2018-06-04T19:47:10.647Z,77.46
2018-06-04T19:50:15.098Z,77.65
2018-06-04T19:53:19.487Z,78.42
2018-06-04T19:56:23.877Z,78.63
2018-06-04T19:59:28.281Z,78.35
2018-06-04T20:02:32.712Z,79.11
2018-06-04T20:05:37.085Z,79.36
2018-06-04T20:08:41.828Z,78.47
2018-06-04T20:11:46.224Z,79.08
2018-06-04T20:14:50.652Z,79.78
2018-06-04T20:17:55.033Z,79.42
2018-06-04T20:20:59.488Z,80.17
2018-06-04T20:24:03.928Z,80.43
2018-06-04T20:27:08.323Z,80.41
2018-06-04T20:30:12.694Z,80.61
2018-06-04T20:33:17.077Z,80.28
2018-06-04T20:36:21.468Z,80.37
2018-06-04T20:39:25.846Z,80.44
2018-06-04T20:42:30.337Z,80.85
2018-06-04T20:45:34.700Z,81.90
2018-06-04T20:48:38.811Z,81.63
2018-06-04T20:51:43.194Z,82.04
2018-06-04T20:54:47.599Z,82.44
2018-06-04T20:57:51.986Z,81.93
2018-06-04T21:00:56.407Z,82.24
2018-06-04T21:04:00.817Z,82.86
2018-06-04T21:07:05.189Z,82.92
2018-06-04T21:10:09.573Z,82.52
2018-06-04T21:13:13.972Z,83.22
2018-06-04T21:16:18.407Z,82.60
2018-06-04T21:19:22.866Z,82.73
2018-06-04T21:22:26.987Z,82.73
2018-06-04T21:25:31.345Z,82.99
2018-06-04T21:28:35.753Z,83.72
2018-06-04T21:31:40.143Z,83.55
2018-06-04T21:34:44.520Z,83.65
2018-06-04T21:37:48.985Z,84.05
2018-06-04T21:40:53.365Z,84.32
2018-06-04T21:43:57.750Z,83.44
2018-06-04T21:47:02.171Z,84.20
2018-06-04T21:50:06.734Z,84.23
2018-06-04T21:53:11.106Z,83.85
2018-06-04T21:56:15.514Z,84.58
2018-06-04T21:59:19.880Z,84.29
2018-06-04T22:02:24.250Z,84.32
2018-06-04T22:05:28.797Z,85.68
2018-06-04T22:08:33.198Z,84.64
2018-06-04T22:11:37.592Z,84.83
2018-06-04T22:14:42.099Z,85.29
2018-06-04T22:17:46.489Z,85.57
2018-06-04T22:20:50.904Z,85.46
2018-06-04T22:23:55.311Z,85.81
2018-06-04T22:26:59.708Z,86.01
2018-06-04T22:30:04.149Z,85.79
2018-06-04T22:33:08.630Z,86.23
2018-06-04T22:36:13.012Z,85.80
2018-06-04T22:39:17.496Z,86.35
2018-06-04T22:42:21.884Z,86.25
2018-06-04T22:45:26.280Z,86.38
2018-06-04T22:48:30.663Z,86.24
2018-06-04T22:51:35.965Z,86.09
2018-06-04T22:54:40.355Z,86.36
2018-06-04T22:57:44.733Z,86.02
2018-06-04T23:00:49.127Z,86.02
2018-06-04T23:03:53.512Z,86.16
2018-06-04T23:06:57.893Z,86.96
2018-06-04T23:10:02.278Z,86.39
2018-06-04T23:13:06.704Z,86.94
2018-06-04T23:16:11.107Z,86.93
2018-06-04T23:19:15.505Z,86.67
2018-06-04T23:22:19.913Z,86.48
2018-06-04T23:25:24.314Z,87.21
2018-06-04T23:28:28.701Z,86.65
2018-06-04T23:31:33.103Z,86.88
2018-06-04T23:34:37.484Z,87.02
2018-06-04T23:37:41.894Z,87.51
2018-06-04T23:40:46.261Z,86.76
2018-06-04T23:43:50.645Z,87.16
2018-06-04T23:46:55.029Z,87.25
2018-06-04T23:49:59.426Z,86.55
2018-06-04T23:53:03.802Z,87.02
2018-06-04T23:56:08.190Z,87.19
2018-06-04T23:59:12.554Z,87.58
